Robins Air Force Base
KWRB : now visible

Airfield :











YOU CAN JOIN US ON...

 
LOGIN :

Register | Disclaimer

   EN    FR    IT 

 









Legend :    VFR   Marginal VFR   IFR   Intensive IFR   Very Intensive IFR
Visi :
Ceiling :
>= 8 km
>= 3000ft
5 to 8 km
1000 to 3000 ft
1500m to 5 km
500 to 1000 ft
800 to 1500m
200 to 500 ft
< 800m
< 200 ft
Symbols :   Thunderstorms  Fog  Heavy snow  Heavy precipitations  Wind > 20 kt






- Airport Elevation : 294 ft


KWRB - Robins Air Force Base

CURRENT METAR :
  • 220256Z 35008KT 10SM CLR 11/M01 A3013 RMK AO2A SLP206 T01051009 52037

EXPIRED METARs :
  • 220156Z 35009KT 10SM CLR 11/M01 A3010 RMK AO2A SLPNO T01111010
  • 220056Z 32012KT 10SM CLR 13/M00 A3006 RMK AO2A SLPNO T01311005

TAF AMD TAF KWRB
Valid from the 22 at 01:00 until the 23 at 06:00 UTC


220100Z 2201/2306 33013KT 9999 SKC QNH3006INS
BECMG 2201/2202 33007KT 9999 SKC QNH3008INS TX19/2221Z TN04/2211Z
KZTL FIR / North America



MET'MAP, your aeronautical weather chart ! - Copyright ORBIFLY December 2007 - Disclaimer

ORBIFLY MET'MAP TEAM :

Programming & Development : Alexandra Zaïnal
Concept & original design : Baudouin d'Aumeries
Assistance for programming : Marc-Olivier Méhu
Technical & hardware support : Manuel Goepfert

Contact : metmap@orbifly.com




SOURCES & CREDITS :

   NOAA       Earth
Advisory